Adco, Washington
Current Conditions -  °F | °C
As of 11:53 AM on Friday 19 Dec 2014 (Local Time) from KEPH Reporting Station
Haze Haze  
Wind Chill:   Ceiling: 600
Heat Index:   Visibility: 6mi
Dew Point:   Wind: 6mph
Humidity: 89%   Direction: 230°SW
Pressure: 29.89"   Gusts: NA
Location:  47.4314°N, 119.485°W
Report Text: KEPH 191953Z AUTO 23005KT 6SM BR OVC006 04/03 A2989 RMK AO2 SLP131 T00440028
Loading
Personal Weather Stations






























Interactive Weather Map New forecast layout! Learn more

10-Day Weather Forecast

Advertisements
Track Severe Weather on mobile